Time;durP1;ratioP1;P1;durP2;ratioP2;P2;SDS_P1;SDS_P2;PMS_P1;PMS_P2;Temp;Humidity;BMP_temperature;BMP_pressure;BME280_temperature;BME280_humidity;BME280_pressure;Samples;Min_cycle;Max_cycle;Signal;HPM_P1;HPM_P2
2022/07/16 00:05:37;;;;;;;5.50;2.50;;;;;;;9.82;66.84;100047.25;216083;1274;139812;-63
2022/07/16 00:10:41;;;;;;;6.10;2.60;;;;;;;9.84;67.08;100048.13;215703;1274;139810;-64
2022/07/16 00:15:46;;;;;;;4.40;2.20;;;;;;;9.89;67.04;100047.67;215092;1274;141729;-64
2022/07/16 00:20:49;;;;;;;4.20;2.60;;;;;;;9.92;66.98;100047.02;216236;1274;139910;-65
2022/07/16 00:25:53;;;;;;;3.20;2.80;;;;;;;10.03;67.52;100051.36;215720;1274;140479;-65
2022/07/16 00:30:58;;;;;;;4.30;3.30;;;;;;;10.12;67.37;100046.73;215278;1274;207678;-64
2022/07/16 00:36:03;;;;;;;6.70;4.50;;;;;;;10.17;67.52;100048.81;214473;1274;141110;-65
2022/07/16 00:41:16;;;;;;;7.10;2.30;;;;;;;10.13;67.45;100049.63;215546;1274;139724;-66
2022/07/16 00:46:20;;;;;;;5.60;3.20;;;;;;;10.08;67.62;100040.57;214721;1274;139662;-64
2022/07/16 00:51:27;;;;;;;6.40;4.20;;;;;;;10.00;67.84;100034.27;214388;1273;140562;-65
2022/07/16 00:56:32;;;;;;;6.00;3.30;;;;;;;9.98;68.04;100035.70;214439;1274;139358;-64
2022/07/16 01:01:35;;;;;;;6.40;3.00;;;;;;;9.98;68.30;100037.69;214204;1274;139789;-63
2022/07/16 01:06:40;;;;;;;4.90;2.50;;;;;;;10.04;68.24;100033.38;213938;1274;140962;-64
2022/07/16 01:11:44;;;;;;;5.60;3.10;;;;;;;10.06;68.28;100034.58;213267;1275;140744;-64
2022/07/16 01:16:49;;;;;;;4.00;2.60;;;;;;;10.09;68.64;100030.20;214145;1274;140730;-64
2022/07/16 01:21:55;;;;;;;3.80;2.80;;;;;;;10.13;68.92;100024.30;214202;1274;144052;-62
2022/07/16 01:26:59;;;;;;;4.70;3.60;;;;;;;10.23;69.30;100024.86;213322;1274;141204;-63
2022/07/16 01:32:03;;;;;;;4.20;2.60;;;;;;;10.31;69.39;100022.95;213175;1274;142969;-64
2022/07/16 01:37:09;;;;;;;3.30;2.50;;;;;;;10.34;69.37;100017.02;213965;1274;143674;-64
2022/07/16 01:42:14;;;;;;;6.60;2.30;;;;;;;10.40;69.54;100015.61;214130;1274;142126;-64
2022/07/16 01:47:19;;;;;;;3.40;2.80;;;;;;;10.46;69.49;100010.92;214567;1274;144854;-63
2022/07/16 01:52:23;;;;;;;5.20;3.00;;;;;;;10.50;69.74;100012.48;214564;1274;141435;-64
2022/07/16 01:57:27;;;;;;;4.10;2.30;;;;;;;10.51;69.63;100011.44;216051;1273;142834;-64
2022/07/16 02:02:30;;;;;;;6.40;2.50;;;;;;;10.51;69.69;100005.23;216284;1273;140319;-64
2022/07/16 02:07:34;;;;;;;10.00;3.10;;;;;;;10.56;69.55;100001.53;214165;1273;141039;-64
2022/07/16 02:12:39;;;;;;;4.00;2.90;;;;;;;10.57;69.48;100002.63;215195;1274;141535;-64
2022/07/16 02:17:43;;;;;;;5.40;2.80;;;;;;;10.56;69.51;99996.48;214764;1274;141184;-64
2022/07/16 02:22:47;;;;;;;5.60;2.40;;;;;;;10.57;69.59;99991.96;214339;1274;140102;-65
2022/07/16 02:28:07;;;;;;;3.00;2.20;;;;;;;10.64;69.69;99998.66;214072;1274;139477;-65
2022/07/16 02:33:17;;;;;;;4.70;1.70;;;;;;;10.68;69.57;99993.80;213903;1274;140729;-64
2022/07/16 02:38:22;;;;;;;3.10;2.60;;;;;;;10.76;69.78;99992.30;214009;1273;142296;-64
2022/07/16 02:43:28;;;;;;;2.30;2.10;;;;;;;10.79;69.90;99997.46;214514;1274;139863;-64
2022/07/16 02:48:32;;;;;;;2.50;2.30;;;;;;;10.74;69.92;99995.21;214485;1274;141459;-64
2022/07/16 02:53:37;;;;;;;7.30;2.60;;;;;;;10.70;69.98;99990.68;213528;1274;141436;-63
2022/07/16 02:58:43;;;;;;;3.50;3.00;;;;;;;10.68;70.05;99986.70;213788;1274;142047;-63
2022/07/16 03:03:48;;;;;;;5.40;2.70;;;;;;;10.69;70.12;99980.66;213764;1274;140381;-63
2022/07/16 03:08:53;;;;;;;5.10;2.70;;;;;;;10.71;70.34;99979.99;214205;1272;141199;-63
2022/07/16 03:13:58;;;;;;;2.80;2.20;;;;;;;10.79;70.55;99983.65;213385;1274;140996;-63
2022/07/16 03:19:02;;;;;;;3.50;2.50;;;;;;;10.87;70.70;99983.16;214547;1274;141913;-64
2022/07/16 03:24:06;;;;;;;6.40;2.20;;;;;;;10.96;70.80;99975.59;213770;1274;141145;-62
2022/07/16 03:29:11;;;;;;;2.60;2.30;;;;;;;11.03;70.78;99974.89;213273;1277;210558;-63
2022/07/16 03:34:16;;;;;;;5.40;2.50;;;;;;;11.12;70.79;99974.35;213501;1274;140929;-63
2022/07/16 03:39:24;;;;;;;7.10;2.40;;;;;;;11.22;70.94;99978.48;214749;1274;141733;-64
2022/07/16 03:44:29;;;;;;;3.70;2.60;;;;;;;11.27;70.59;99977.54;215817;1274;141590;-64
2022/07/16 03:49:33;;;;;;;1.80;1.70;;;;;;;11.28;70.55;99973.87;213444;1274;140927;-63
2022/07/16 03:54:39;;;;;;;4.90;3.10;;;;;;;11.41;70.67;99971.20;216250;1274;141694;-63
2022/07/16 03:59:43;;;;;;;3.50;2.30;;;;;;;11.56;70.43;99963.47;216316;1274;140981;-64
2022/07/16 04:04:48;;;;;;;6.70;2.50;;;;;;;11.69;70.17;99961.27;214443;1274;142254;-62
2022/07/16 04:09:52;;;;;;;4.70;2.50;;;;;;;11.79;70.18;99963.31;216120;1274;141493;-64
2022/07/16 04:14:59;;;;;;;2.40;2.20;;;;;;;11.88;69.71;99964.19;216221;1273;141972;-64
2022/07/16 04:20:04;;;;;;;6.00;3.60;;;;;;;11.99;69.62;99961.45;215906;1274;140523;-62
2022/07/16 04:25:09;;;;;;;2.50;2.10;;;;;;;12.10;69.07;99959.21;214009;1274;152274;-63
2022/07/16 04:30:14;;;;;;;6.10;2.70;;;;;;;12.23;68.84;99960.30;213342;1274;141122;-61
2022/07/16 04:35:19;;;;;;;2.50;2.30;;;;;;;12.32;68.88;99957.15;214232;1274;140305;-62
2022/07/16 04:40:24;;;;;;;4.40;2.10;;;;;;;12.38;68.20;99961.05;213718;1274;141055;-63
2022/07/16 04:45:28;;;;;;;6.60;3.20;;;;;;;12.36;67.95;99958.13;213519;1274;142258;-63
2022/07/16 04:50:32;;;;;;;11.70;5.30;;;;;;;12.42;67.66;99958.08;214419;1274;139683;-61
2022/07/16 04:55:35;;;;;;;16.90;8.80;;;;;;;12.54;67.98;99954.73;213682;1274;141080;-62
2022/07/16 05:00:40;;;;;;;12.40;7.20;;;;;;;12.70;67.84;99955.55;213523;1274;141905;-64
2022/07/16 05:05:43;;;;;;;8.80;5.40;;;;;;;12.89;67.48;99953.91;214039;1274;140504;-65
2022/07/16 05:10:48;;;;;;;8.30;5.00;;;;;;;13.08;67.23;99953.20;213979;1274;142489;-64
2022/07/16 05:15:53;;;;;;;8.80;3.60;;;;;;;13.31;66.82;99949.36;213571;1274;140593;-64
2022/07/16 05:20:57;;;;;;;6.10;3.20;;;;;;;13.54;66.55;99946.73;213588;1274;141264;-65
2022/07/16 05:26:01;;;;;;;3.40;2.10;;;;;;;13.80;66.26;99941.51;213564;1274;140327;-63
2022/07/16 05:31:04;;;;;;;8.70;3.90;;;;;;;14.12;65.98;99937.20;214888;1274;140828;-65
2022/07/16 05:36:08;;;;;;;2.30;2.20;;;;;;;14.68;65.27;99936.05;213680;1274;141593;-61
2022/07/16 05:41:12;;;;;;;2.70;2.10;;;;;;;15.12;64.95;99928.09;213465;1274;141153;-64
2022/07/16 05:46:19;;;;;;;5.30;1.90;;;;;;;15.50;64.30;99927.50;214468;1274;140634;-64
2022/07/16 05:51:23;;;;;;;13.20;3.90;;;;;;;15.65;63.38;99921.65;214698;1274;140335;-64
2022/07/16 05:56:27;;;;;;;2.80;2.60;;;;;;;15.87;62.74;99923.39;216358;1274;141602;-63
2022/07/16 06:01:31;;;;;;;6.10;2.50;;;;;;;16.26;62.30;99923.48;215119;1274;141659;-63
2022/07/16 06:06:36;;;;;;;11.80;2.70;;;;;;;16.80;61.77;99920.75;216259;1274;139749;-63
2022/07/16 06:11:41;;;;;;;4.50;2.40;;;;;;;17.58;60.50;99919.48;214828;1274;140208;-63
2022/07/16 06:16:47;;;;;;;2.20;1.40;;;;;;;18.51;59.16;99926.44;214794;1274;140016;-62
2022/07/16 06:21:53;;;;;;;2.60;2.20;;;;;;;19.10;57.65;99914.77;213898;1274;141432;-62
2022/07/16 06:26:58;;;;;;;3.10;1.90;;;;;;;19.87;56.56;99915.90;214655;1274;140605;-62
2022/07/16 06:32:02;;;;;;;1.50;1.20;;;;;;;20.25;55.30;99917.27;214916;1274;140142;-61
2022/07/16 06:37:06;;;;;;;2.00;1.70;;;;;;;20.12;54.79;99914.29;214952;1274;140338;-62
2022/07/16 06:42:10;;;;;;;2.90;1.90;;;;;;;20.32;54.24;99912.52;213333;1274;140177;-63
2022/07/16 06:47:13;;;;;;;2.70;1.50;;;;;;;21.07;53.61;99905.92;213515;1274;141203;-60
2022/07/16 06:52:17;;;;;;;2.20;1.80;;;;;;;22.22;52.01;99902.73;213445;1274;140733;-61
2022/07/16 06:57:22;;;;;;;2.80;1.60;;;;;;;23.30;50.32;99900.66;213544;1274;140262;-61
2022/07/16 07:02:26;;;;;;;2.10;1.30;;;;;;;24.79;48.48;99890.29;213325;1274;141321;-62
2022/07/16 07:07:30;;;;;;;2.40;1.60;;;;;;;25.81;46.07;99883.98;213457;1274;140787;-62
2022/07/16 07:12:34;;;;;;;2.40;1.90;;;;;;;26.83;43.95;99879.26;213456;1274;143080;-63
2022/07/16 07:17:38;;;;;;;1.30;0.80;;;;;;;27.28;41.83;99876.45;213535;1274;140591;-62
2022/07/16 07:22:43;;;;;;;1.10;1.00;;;;;;;28.46;40.75;99876.73;214709;1274;139789;-62
2022/07/16 07:27:47;;;;;;;2.20;0.90;;;;;;;28.87;38.82;99886.46;213275;1274;162953;-62
2022/07/16 07:32:54;;;;;;;1.60;1.50;;;;;;;28.49;37.96;99878.09;213713;1274;140601;-62
2022/07/16 07:37:59;;;;;;;4.30;1.70;;;;;;;28.57;38.16;99869.53;214705;1273;142304;-64
2022/07/16 07:43:04;;;;;;;5.50;2.00;;;;;;;28.54;37.73;99866.64;213714;1274;140717;-63
2022/07/16 07:48:09;;;;;;;2.90;1.80;;;;;;;28.31;37.37;99859.11;214750;1274;140484;-65
2022/07/16 07:53:13;;;;;;;2.50;1.30;;;;;;;27.96;37.03;99853.80;216169;1274;139298;-64
2022/07/16 07:58:21;;;;;;;4.50;1.70;;;;;;;27.64;36.80;99852.05;215877;1274;138983;-65
2022/07/16 08:03:26;;;;;;;2.00;1.50;;;;;;;26.84;36.45;99849.81;214118;1274;140529;-63
2022/07/16 08:08:31;;;;;;;2.50;1.20;;;;;;;26.38;36.75;99841.05;215382;1274;141313;-63
2022/07/16 08:13:35;;;;;;;3.70;1.30;;;;;;;26.21;36.85;99839.59;214418;1274;140467;-63
2022/07/16 08:18:43;;;;;;;1.50;1.30;;;;;;;25.59;36.66;99841.79;213907;1274;140669;-63
2022/07/16 08:29:13;;;;;;;2.80;1.20;;;;;;;24.82;37.48;99840.98;214291;1274;139898;-63
2022/07/16 08:34:19;;;;;;;2.50;1.20;;;;;;;24.44;37.71;99842.25;213895;1274;142484;-63
2022/07/16 08:39:25;;;;;;;4.50;1.50;;;;;;;23.97;37.17;99837.13;214428;1274;139037;-64
2022/07/16 08:44:31;;;;;;;3.90;1.30;;;;;;;23.39;37.65;99838.02;214401;1274;140011;-64
2022/07/16 08:49:37;;;;;;;;;;;;;;;22.95;38.21;99841.66;213449;1274;139621;-63
2022/07/16 08:54:45;;;;;;;2.50;1.50;;;;;;;22.73;38.76;99845.91;213820;1274;126507;-63
2022/07/16 08:59:56;;;;;;;1.50;1.40;;;;;;;22.89;39.19;99835.91;212664;1274;1448708;-64
2022/07/16 09:05:02;;;;;;;2.20;1.20;;;;;;;22.95;39.46;99831.94;213308;1274;225986;-65
2022/07/16 09:10:10;;;;;;;3.00;1.20;;;;;;;22.93;39.29;99833.46;213712;1274;140197;-64
2022/07/16 09:15:25;;;;;;;2.90;1.40;;;;;;;22.87;39.28;99826.02;213702;1274;139959;-65
2022/07/16 09:20:31;;;;;;;2.20;1.00;;;;;;;22.65;39.22;99831.27;213940;1273;139704;-64
2022/07/16 09:25:47;;;;;;;2.80;1.10;;;;;;;22.55;39.22;99821.54;213184;1274;139800;-64
2022/07/16 09:30:52;;;;;;;6.80;0.90;;;;;;;22.56;39.27;99825.20;214511;1274;139131;-64
2022/07/16 09:36:11;;;;;;;0.80;0.80;;;;;;;22.51;38.95;99822.05;214286;1274;141299;-64
2022/07/16 09:41:16;;;;;;;1.30;1.10;;;;;;;22.43;39.34;99810.64;214868;1274;139230;-63
2022/07/16 09:46:23;;;;;;;4.20;1.30;;;;;;;22.80;40.16;99797.27;215866;1275;140506;-64
2022/07/16 09:51:30;;;;;;;4.10;1.50;;;;;;;23.30;39.76;99793.30;213862;1274;139935;-63
2022/07/16 09:56:35;;;;;;;2.10;1.50;;;;;;;23.43;39.48;99787.62;215754;1274;139161;-63
2022/07/16 10:01:39;;;;;;;4.30;1.40;;;;;;;23.67;39.38;99785.06;216289;1274;139963;-63
2022/07/16 10:06:45;;;;;;;1.40;1.30;;;;;;;23.34;38.82;99792.17;216199;1274;140182;-64
2022/07/16 10:11:51;;;;;;;2.30;1.30;;;;;;;23.32;39.59;99788.08;215508;1274;140611;-64
2022/07/16 10:17:00;;;;;;;2.80;1.50;;;;;;;23.71;39.71;99782.69;213864;1274;140750;-63
2022/07/16 10:22:15;;;;;;;2.70;1.30;;;;;;;24.06;39.35;99782.38;213646;1271;141000;-63
2022/07/16 10:27:30;;;;;;;0.70;0.70;;;;;;;24.15;39.05;99779.41;214443;1274;140898;-64
2022/07/16 10:33:06;;;;;;;3.40;0.90;;;;;;;24.10;38.97;99769.73;215092;1274;140160;-64
2022/07/16 10:38:22;;;;;;;1.50;0.80;;;;;;;24.01;38.85;99762.16;214581;1274;139371;-63
2022/07/16 10:43:28;;;;;;;1.00;1.00;;;;;;;23.78;38.69;99762.94;214030;1274;140314;-64
2022/07/16 10:48:38;;;;;;;3.10;1.10;;;;;;;23.60;38.85;99761.27;213680;1275;140066;-66
2022/07/16 10:53:58;;;;;;;1.20;0.80;;;;;;;23.58;38.86;99760.89;213400;1274;141580;-64
2022/07/16 10:59:08;;;;;;;1.10;0.80;;;;;;;23.68;38.38;99759.92;213672;1274;140700;-65
2022/07/16 11:04:13;;;;;;;2.60;0.80;;;;;;;23.28;38.34;99753.33;213732;1274;139851;-63
2022/07/16 11:09:39;;;;;;;1.40;0.60;;;;;;;22.91;38.69;99749.67;213992;1274;140322;-64
2022/07/16 11:14:52;;;;;;;1.70;0.50;;;;;;;22.58;39.00;99742.92;214000;1274;141204;-62
2022/07/16 11:20:00;;;;;;;1.50;1.00;;;;;;;22.35;39.28;99738.92;213084;1276;141343;-63
2022/07/16 11:25:08;;;;;;;0.60;0.60;;;;;;;22.24;39.40;99737.44;214023;1274;140264;-64
2022/07/16 11:30:13;;;;;;;1.80;0.60;;;;;;;22.09;39.33;99742.74;214310;1274;139757;-64
2022/07/16 11:35:20;;;;;;;0.70;0.60;;;;;;;21.85;39.86;99744.14;214414;1274;139198;-64
2022/07/16 11:40:34;;;;;;;0.70;0.60;;;;;;;21.54;40.03;99751.88;216037;1274;139786;-63
2022/07/16 11:45:45;;;;;;;4.40;0.80;;;;;;;21.19;40.45;99759.11;213830;1274;163147;-64
2022/07/16 11:50:53;;;;;;;1.60;1.20;;;;;;;20.76;41.79;99774.45;216225;1274;141094;-65
2022/07/16 11:56:00;;;;;;;1.70;0.60;;;;;;;20.30;43.29;99808.92;216189;1274;139341;-65
2022/07/16 12:01:07;;;;;;;5.00;1.60;;;;;;;19.67;45.24;99842.18;216061;1274;140079;-64
2022/07/16 12:06:14;;;;;;;1.50;0.90;;;;;;;19.07;47.53;99864.51;215317;1274;139219;-64
2022/07/16 12:11:28;;;;;;;2.80;1.30;;;;;;;18.59;49.12;99874.48;214742;1274;141750;-65
2022/07/16 12:16:32;;;;;;;1.30;1.20;;;;;;;18.24;50.88;99875.58;214693;1276;140129;-65
2022/07/16 12:21:39;;;;;;;4.80;1.40;;;;;;;17.94;51.99;99878.02;214607;1275;140114;-65
2022/07/16 12:26:44;;;;;;;2.90;1.70;;;;;;;17.71;53.18;99880.50;214553;1275;140935;-64
2022/07/16 12:31:49;;;;;;;20.30;3.10;;;;;;;17.49;54.04;99886.23;213595;1274;139100;-65
2022/07/16 12:36:56;;;;;;;2.00;1.80;;;;;;;17.35;55.10;99886.91;214464;1274;140600;-65
2022/07/16 12:42:02;;;;;;;2.80;1.50;;;;;;;17.24;56.11;99877.24;214623;1274;141135;-66
2022/07/16 12:47:06;;;;;;;4.20;1.90;;;;;;;17.23;56.90;99874.28;214852;1274;139695;-64
2022/07/16 12:52:12;;;;;;;2.80;1.90;;;;;;;17.35;57.63;99869.65;213842;1274;139760;-64
2022/07/16 13:02:41;;;;;;;3.00;1.70;;;;;;;18.34;58.41;99849.70;214129;1275;139982;-65
2022/07/16 13:07:45;;;;;;;3.70;1.60;;;;;;;18.79;58.50;99841.64;214095;1274;139891;-65
2022/07/16 13:12:50;;;;;;;0.90;0.90;;;;;;;18.99;58.32;99840.06;214388;1274;140256;-64
2022/07/16 13:17:54;;;;;;;3.60;1.80;;;;;;;19.18;57.54;99837.80;213750;1276;141017;-64
2022/07/16 13:23:01;;;;;;;1.50;1.40;;;;;;;19.23;57.84;99840.07;213910;1274;140013;-62
2022/07/16 13:28:06;;;;;;;1.70;1.10;;;;;;;19.63;57.86;99829.27;213488;1274;139288;-63
2022/07/16 13:33:11;;;;;;;2.00;1.60;;;;;;;19.96;57.64;99833.60;213749;1274;139999;-63
2022/07/16 13:38:23;;;;;;;2.40;1.20;;;;;;;19.75;57.17;99840.63;215309;1274;141465;-65
2022/07/16 13:43:28;;;;;;;1.70;1.00;;;;;;;19.66;57.31;99848.33;215414;1274;139890;-62
2022/07/16 13:48:33;;;;;;;1.00;1.00;;;;;;;19.40;56.58;99829.84;216176;1274;139336;-64
2022/07/16 13:53:37;;;;;;;2.30;1.20;;;;;;;19.14;56.64;99836.55;214935;1274;140598;-65
2022/07/16 13:58:41;;;;;;;1.50;1.40;;;;;;;19.03;56.77;99836.17;216302;1274;140466;-66
2022/07/16 14:03:45;;;;;;;2.00;1.50;;;;;;;19.06;57.26;99833.71;216027;1274;141493;-64
2022/07/16 14:08:50;;;;;;;1.30;0.50;;;;;;;19.18;57.32;99818.52;216092;1274;140782;-65
2022/07/16 14:13:57;;;;;;;1.90;1.30;;;;;;;19.18;56.91;99809.48;215850;1276;139500;-65
2022/07/16 14:19:01;;;;;;;1.60;1.50;;;;;;;19.10;57.14;99810.54;215052;1274;139400;-64
2022/07/16 14:24:06;;;;;;;1.00;1.00;;;;;;;19.07;57.50;99819.86;215839;1274;141088;-65
2022/07/16 14:29:10;;;;;;;0.80;0.80;;;;;;;19.22;57.58;99820.61;215064;1274;140054;-62
2022/07/16 14:34:14;;;;;;;2.00;1.40;;;;;;;19.48;57.07;99823.59;213588;1274;140759;-66
2022/07/16 14:39:19;;;;;;;1.30;1.20;;;;;;;19.42;56.93;99823.73;213923;1274;163640;-65
2022/07/16 14:44:28;;;;;;;1.10;1.10;;;;;;;18.96;56.87;99807.52;214307;1274;143631;-64
2022/07/16 14:49:33;;;;;;;1.00;1.00;;;;;;;18.71;57.14;99808.34;213029;1274;140308;-64
2022/07/16 14:54:39;;;;;;;3.50;1.00;;;;;;;18.93;57.20;99816.02;214051;1274;140885;-65
2022/07/16 14:59:45;;;;;;;1.40;1.30;;;;;;;19.03;56.95;99830.71;213472;1274;143388;-65
2022/07/16 15:04:51;;;;;;;;;;;;;;;18.82;56.94;99852.89;214402;1274;141027;-64
2022/07/16 15:09:56;;;;;;;1.40;1.30;;;;;;;18.67;57.13;99869.83;214841;1274;127691;-64
2022/07/16 15:15:04;;;;;;;1.80;1.00;;;;;;;18.66;57.04;99876.81;213114;1274;232365;-62
2022/07/16 15:20:11;;;;;;;0.60;0.60;;;;;;;18.37;55.43;99883.13;214066;1274;139689;-64
2022/07/16 15:25:16;;;;;;;1.70;0.70;;;;;;;17.88;55.13;99906.13;213832;1274;141114;-63
2022/07/16 15:30:21;;;;;;;0.80;0.80;;;;;;;17.58;55.58;99917.15;213074;1274;141701;-65
2022/07/16 15:35:26;;;;;;;1.00;0.90;;;;;;;17.74;56.12;99913.88;213999;1274;141898;-64
2022/07/16 15:40:31;;;;;;;1.10;0.70;;;;;;;18.07;55.91;99909.47;215283;1274;140982;-64
2022/07/16 15:45:57;;;;;;;4.60;1.00;;;;;;;18.14;55.75;99907.37;214792;1274;207265;-65
2022/07/16 15:51:03;;;;;;;0.80;0.80;;;;;;;18.26;55.79;99911.84;215048;1274;139763;-63
2022/07/16 15:56:08;;;;;;;;;;;;;;;18.44;55.50;99910.71;215796;1274;140059;-65
2022/07/16 16:01:15;;;;;;;2.70;0.70;;;;;;;18.60;54.88;99932.33;216792;1274;126092;-64
2022/07/16 16:06:20;;;;;;;0.40;0.40;;;;;;;18.47;53.07;99958.85;215767;1274;140315;-65
2022/07/16 16:11:25;;;;;;;1.30;0.70;;;;;;;18.04;51.98;99968.08;215259;1274;139470;-64
2022/07/16 16:16:32;;;;;;;0.50;0.50;;;;;;;17.63;51.87;99976.02;216045;1274;141205;-63
2022/07/16 16:21:39;;;;;;;0.90;0.70;;;;;;;17.36;51.94;99978.90;215637;1274;140259;-65
2022/07/16 16:26:44;;;;;;;0.50;0.50;;;;;;;17.19;51.96;99982.91;214624;1274;139879;-64
2022/07/16 16:31:50;;;;;;;0.60;0.60;;;;;;;17.02;52.15;99987.63;214174;1274;140601;-65
2022/07/16 16:36:54;;;;;;;1.00;0.50;;;;;;;17.21;52.56;99984.85;214308;1274;140259;-64
2022/07/16 16:42:05;;;;;;;0.90;0.70;;;;;;;17.30;52.56;99965.98;213122;1274;140013;-65
2022/07/16 16:47:10;;;;;;;0.50;0.40;;;;;;;17.20;52.57;99968.52;214293;1274;140809;-64
2022/07/16 16:52:15;;;;;;;12.50;0.80;;;;;;;17.24;52.33;99969.16;214082;1274;139336;-62
2022/07/16 16:57:21;;;;;;;0.70;0.70;;;;;;;17.23;51.86;99975.20;213930;1274;141951;-63
2022/07/16 17:02:25;;;;;;;0.40;0.40;;;;;;;17.14;51.57;99984.25;213884;1274;220259;-65
2022/07/16 17:07:29;;;;;;;2.30;0.80;;;;;;;16.93;51.10;99989.98;213419;1274;140568;-64
2022/07/16 17:12:34;;;;;;;0.60;0.60;;;;;;;16.77;50.96;99995.73;213958;1274;140606;-63
2022/07/16 17:17:39;;;;;;;0.20;0.20;;;;;;;16.66;50.81;100003.94;214014;1274;139960;-65
2022/07/16 17:22:43;;;;;;;1.10;0.70;;;;;;;16.46;51.04;99999.95;213817;1274;140011;-64
2022/07/16 17:27:49;;;;;;;1.10;0.60;;;;;;;16.42;51.19;100001.62;214548;1274;139912;-63
2022/07/16 17:32:52;;;;;;;2.50;0.60;;;;;;;16.35;51.14;100000.15;214303;1274;140445;-65
2022/07/16 17:37:56;;;;;;;0.70;0.70;;;;;;;16.30;51.06;100004.55;214106;1274;142427;-64
2022/07/16 17:43:01;;;;;;;5.00;0.80;;;;;;;16.23;51.18;100008.13;215346;1274;141226;-62
2022/07/16 17:48:09;;;;;;;0.60;0.60;;;;;;;16.13;51.10;100010.81;213513;1274;141460;-65
2022/07/16 17:53:16;;;;;;;0.70;0.50;;;;;;;16.06;51.29;100017.50;216061;1274;140891;-64
2022/07/16 17:58:21;;;;;;;0.40;0.40;;;;;;;15.98;51.25;100015.91;215315;1274;141789;-65
2022/07/16 18:03:29;;;;;;;1.10;0.70;;;;;;;15.88;51.36;100011.14;214966;1274;140650;-64
2022/07/16 18:08:37;;;;;;;0.60;0.60;;;;;;;15.79;51.74;100010.52;216021;1274;141183;-64
2022/07/16 18:13:42;;;;;;;1.30;0.80;;;;;;;15.72;51.79;100012.58;216047;1274;141339;-65
2022/07/16 18:18:50;;;;;;;0.60;0.60;;;;;;;15.64;51.88;100021.61;215704;1274;141061;-64
2022/07/16 18:23:55;;;;;;;0.60;0.60;;;;;;;15.51;52.06;100015.73;214011;1273;140393;-64
2022/07/16 18:29:01;;;;;;;2.10;1.10;;;;;;;15.39;52.42;100022.52;214175;1274;141625;-65
2022/07/16 18:34:08;;;;;;;2.50;1.90;;;;;;;15.23;52.54;100027.25;214502;1274;140781;-65
2022/07/16 18:39:19;;;;;;;2.10;1.30;;;;;;;15.03;53.07;100033.54;213155;1274;141924;-64
2022/07/16 18:44:27;;;;;;;0.80;0.80;;;;;;;14.80;53.61;100037.91;213808;1272;139593;-65
2022/07/16 18:49:33;;;;;;;2.70;0.80;;;;;;;14.62;54.39;100053.23;214453;1275;140150;-66
2022/07/16 18:54:37;;;;;;;1.00;0.70;;;;;;;14.41;54.77;100063.10;214167;1274;139610;-63
2022/07/16 18:59:41;;;;;;;9.90;0.80;;;;;;;14.29;55.38;100071.66;214731;1274;139673;-63
2022/07/16 19:04:46;;;;;;;0.90;0.90;;;;;;;14.18;55.83;100084.48;214315;1274;140570;-64
2022/07/16 19:09:52;;;;;;;1.50;1.10;;;;;;;14.06;56.35;100083.96;213192;1274;139928;-65
2022/07/16 19:14:56;;;;;;;0.70;0.70;;;;;;;13.88;56.87;100086.57;213972;1274;140170;-67
2022/07/16 19:20:03;;;;;;;1.00;0.90;;;;;;;13.68;57.21;100094.12;214227;1274;210287;-64
2022/07/16 19:25:08;;;;;;;2.30;0.90;;;;;;;13.45;57.64;100099.03;213758;1274;141616;-64
2022/07/16 19:30:15;;;;;;;1.50;1.40;;;;;;;13.30;58.46;100111.53;214199;1274;139809;-64
2022/07/16 19:35:27;;;;;;;4.30;1.40;;;;;;;13.21;58.95;100117.00;212905;1274;141082;-64
2022/07/16 19:40:36;;;;;;;1.20;0.60;;;;;;;13.17;59.17;100121.53;213832;1274;141568;-66
2022/07/16 19:45:42;;;;;;;0.80;0.70;;;;;;;13.15;59.24;100125.02;213315;1274;141823;-65
2022/07/16 19:50:49;;;;;;;2.00;1.20;;;;;;;13.13;59.70;100129.70;213295;1274;141098;-67
2022/07/16 20:01:24;;;;;;;2.60;1.20;;;;;;;13.09;59.79;100131.84;215077;1274;143120;-65
2022/07/16 20:06:31;;;;;;;1.70;0.70;;;;;;;13.06;59.84;100136.02;216028;1274;140527;-65
2022/07/16 20:11:37;;;;;;;3.80;1.30;;;;;;;13.05;60.03;100141.45;216053;1274;140827;-65
2022/07/16 20:16:42;;;;;;;1.30;1.00;;;;;;;13.02;60.32;100145.92;215839;1274;140010;-66
2022/07/16 20:21:50;;;;;;;1.80;1.50;;;;;;;13.00;60.44;100148.63;216057;1274;139824;-65
2022/07/16 20:27:00;;;;;;;3.80;1.70;;;;;;;12.95;60.82;100151.00;215978;1274;141079;-63
2022/07/16 20:32:06;;;;;;;2.10;1.10;;;;;;;12.99;60.56;100151.01;215923;1274;140453;-65
2022/07/16 20:37:11;;;;;;;1.80;1.00;;;;;;;13.00;60.84;100158.22;214258;1274;141830;-65
2022/07/16 20:42:15;;;;;;;3.50;1.60;;;;;;;12.99;60.62;100169.00;213503;1274;141782;-64
2022/07/16 20:47:25;;;;;;;1.20;0.80;;;;;;;12.95;61.05;100172.41;214424;1274;140969;-65
2022/07/16 20:52:30;;;;;;;2.40;1.20;;;;;;;12.90;61.20;100176.64;213921;1274;141786;-64
2022/07/16 20:57:37;;;;;;;1.50;1.10;;;;;;;12.86;61.47;100182.08;213279;1274;141660;-66
2022/07/16 21:02:42;;;;;;;5.40;0.80;;;;;;;12.84;61.60;100189.79;214423;1274;574207;-62
2022/07/16 21:07:53;;;;;;;2.60;1.10;;;;;;;12.85;61.93;100193.45;213988;1274;143863;-64
2022/07/16 21:12:58;;;;;;;2.20;1.20;;;;;;;12.88;61.95;100198.81;213320;1274;140677;-65
2022/07/16 21:18:04;;;;;;;4.40;1.50;;;;;;;12.94;62.29;100204.83;213415;1274;140508;-64
2022/07/16 21:23:10;;;;;;;4.60;0.90;;;;;;;13.02;62.22;100213.98;214146;1274;142987;-65
2022/07/16 21:28:15;;;;;;;1.40;1.20;;;;;;;13.09;62.39;100218.19;213157;1274;141479;-65
2022/07/16 21:33:21;;;;;;;2.30;1.50;;;;;;;13.10;62.08;100225.58;213591;1274;152228;-64
2022/07/16 21:38:25;;;;;;;1.30;0.80;;;;;;;13.10;62.07;100228.70;213904;1274;141265;-66
2022/07/16 21:43:29;;;;;;;4.60;1.50;;;;;;;13.07;62.40;100239.71;213495;1274;139464;-66
2022/07/16 21:48:36;;;;;;;2.20;1.70;;;;;;;13.03;62.55;100238.13;214772;1274;140222;-66
2022/07/16 21:53:41;;;;;;;1.40;1.10;;;;;;;12.96;62.59;100244.52;213591;1274;141229;-66
2022/07/16 21:58:46;;;;;;;3.20;1.20;;;;;;;12.96;62.74;100245.64;214276;1274;139930;-64
2022/07/16 22:03:52;;;;;;;4.20;1.50;;;;;;;13.02;62.74;100244.48;214641;1274;140562;-62
2022/07/16 22:09:17;;;;;;;2.50;1.30;;;;;;;13.07;62.98;100249.19;214515;1273;139919;-64
2022/07/16 22:14:22;;;;;;;1.90;1.10;;;;;;;13.07;62.80;100251.75;214390;1274;140057;-65
2022/07/16 22:24:49;;;;;;;0.90;0.80;;;;;;;13.03;63.08;100256.11;216007;1274;140282;-66
2022/07/16 22:29:54;;;;;;;2.20;1.60;;;;;;;12.97;62.92;100260.11;215972;1274;140128;-64
2022/07/16 22:34:58;;;;;;;1.90;0.90;;;;;;;12.91;62.93;100263.19;215579;1274;140449;-65
2022/07/16 22:40:03;;;;;;;2.10;0.70;;;;;;;12.90;63.09;100267.13;213252;1274;140378;-65
2022/07/16 22:45:09;;;;;;;1.60;0.90;;;;;;;12.89;63.12;100272.63;214459;1273;140342;-67
2022/07/16 22:50:14;;;;;;;3.30;1.20;;;;;;;12.84;63.27;100273.86;214002;1274;140083;-66
2022/07/16 22:55:18;;;;;;;3.70;1.20;;;;;;;12.79;63.37;100280.52;215054;1274;140260;-67
2022/07/16 23:00:22;;;;;;;2.50;0.80;;;;;;;12.72;63.70;100281.39;214114;1274;152234;-66
2022/07/16 23:05:27;;;;;;;1.40;1.20;;;;;;;12.68;63.99;100283.23;213879;1273;139785;-68
2022/07/16 23:10:35;;;;;;;3.90;1.10;;;;;;;12.63;63.68;100281.56;214701;1273;163984;-65
2022/07/16 23:15:39;;;;;;;2.50;2.10;;;;;;;12.57;63.91;100282.09;213459;1274;140100;-65
2022/07/16 23:20:44;;;;;;;2.10;1.10;;;;;;;12.52;64.12;100287.67;214109;1274;139523;-64
2022/07/16 23:25:48;;;;;;;1.70;1.00;;;;;;;12.44;64.06;100289.65;214010;1274;139559;-64
2022/07/16 23:30:52;;;;;;;6.10;1.40;;;;;;;12.38;64.34;100292.35;213857;1274;139620;-64
2022/07/16 23:35:56;;;;;;;1.50;1.30;;;;;;;12.34;64.44;100291.46;214624;1274;140448;-65
2022/07/16 23:41:01;;;;;;;1.10;0.90;;;;;;;12.30;64.63;100295.52;214572;1272;140329;-64
2022/07/16 23:46:05;;;;;;;3.00;1.10;;;;;;;12.28;64.78;100295.19;214812;1274;140761;-65